KCPR

Casper / Natrona County International Airport

Casper, Wyoming, USA
METAR KCPR 171553Z 20005KT 10SM CLR 23/09 A3027 RMK AO2 SLP181 T02280089
Observed Flight Rules
Aug-17 @ 15:53 UTC (58 minutes ago) Visual Flight Rules
Wind Visibility Clouds
200° at 5 knots 10 miles
  • Clear skies
Temperatures Readings
Current 23°C / 73°F
Dewpoint 9°C / 48°F
Humidity 41%
Altimeter 30.27" Hg
Pressure 1018.1 hPa
Elevation 1621
METAR KCPR 171553Z 20005KT 10SM CLR 23/09 A3027 RMK AO2 SLP181 T02280089
Observed Flight Rules
Aug-17 @ 15:53 UTC
(58 minutes ago)
VFR
Wind Visibility
200° at 5 knots 10 miles
Clouds
  • Clear skies
Temperature Dewpoint
23°C / 73°F 9°C / 48°F
Humidity Altimeter Pressure
41% 30.27" Hg 1018.1 hPa